Terminal Aerodrome Forecast
Issued by NWS Honolulu, HI

Home | Current Version | Previous Version | Text Only | Print | Product List | Glossary On
Versions: 1 2 3 4 5 6 7 8 9 10 11 12 13 14 15 16 17 18 19 20 21 22 23 24 25 26 27
000
FTPA31 PHFO 251745
TAFHNL
TAF
PHNL 251745Z 2518/2624 35006KT P6SM FEW025 SCT045 BKN250
     FM252100 11010KT P6SM FEW030 SCT050 BKN250
     FM260500 06005KT P6SM FEW025 FEW050 SCT250
     FM262100 11010KT P6SM FEW030 SCT050=

USA.gov is the U.S. government's official web portal to all federal, state and local government web resources and services.